sensor_id;sensor_type;location;lat;lon;timestamp;pressure;altitude;pressure_sealevel;temperature;humidity
84990;BME280;75307;53.836;10.476;2024-01-30T00:01:33;102649.72;;;-0.24;79.50
84990;BME280;75307;53.836;10.476;2024-01-30T00:03:35;102642.72;;;-0.27;79.62
84990;BME280;75307;53.836;10.476;2024-01-30T00:05:36;102645.06;;;-0.33;79.63
84990;BME280;75307;53.836;10.476;2024-01-30T00:07:38;102644.94;;;-0.36;79.08
84990;BME280;75307;53.836;10.476;2024-01-30T00:09:40;102646.50;;;-0.39;79.44
84990;BME280;75307;53.836;10.476;2024-01-30T00:11:42;102654.19;;;-0.41;79.10
84990;BME280;75307;53.836;10.476;2024-01-30T00:13:45;102653.13;;;-0.46;79.72
84990;BME280;75307;53.836;10.476;2024-01-30T00:15:47;102650.41;;;-0.49;79.78
84990;BME280;75307;53.836;10.476;2024-01-30T00:17:48;102651.38;;;-0.47;80.11
84990;BME280;75307;53.836;10.476;2024-01-30T00:19:52;102655.56;;;-0.49;79.84
84990;BME280;75307;53.836;10.476;2024-01-30T00:21:54;102657.25;;;-0.49;80.07
84990;BME280;75307;53.836;10.476;2024-01-30T00:23:55;102655.38;;;-0.54;79.27
84990;BME280;75307;53.836;10.476;2024-01-30T00:25:57;102650.28;;;-0.52;80.06
84990;BME280;75307;53.836;10.476;2024-01-30T00:27:59;102647.72;;;-0.52;79.09
84990;BME280;75307;53.836;10.476;2024-01-30T00:30:02;102652.88;;;-0.52;79.42
84990;BME280;75307;53.836;10.476;2024-01-30T00:32:06;102658.78;;;-0.55;79.31
84990;BME280;75307;53.836;10.476;2024-01-30T00:34:06;102648.31;;;-0.58;79.52
84990;BME280;75307;53.836;10.476;2024-01-30T00:36:09;102651.59;;;-0.62;80.38
84990;BME280;75307;53.836;10.476;2024-01-30T00:38:11;102650.72;;;-0.62;80.27
84990;BME280;75307;53.836;10.476;2024-01-30T00:40:13;102645.25;;;-0.68;79.33
84990;BME280;75307;53.836;10.476;2024-01-30T00:42:16;102646.91;;;-0.70;80.22
84990;BME280;75307;53.836;10.476;2024-01-30T00:44:16;102645.16;;;-0.71;80.04
84990;BME280;75307;53.836;10.476;2024-01-30T00:46:20;102643.25;;;-0.75;80.49
84990;BME280;75307;53.836;10.476;2024-01-30T00:48:21;102651.00;;;-0.75;80.47
84990;BME280;75307;53.836;10.476;2024-01-30T00:50:23;102651.88;;;-0.75;80.01
84990;BME280;75307;53.836;10.476;2024-01-30T00:52:25;102650.03;;;-0.78;79.36
84990;BME280;75307;53.836;10.476;2024-01-30T00:54:26;102644.75;;;-0.81;79.47
84990;BME280;75307;53.836;10.476;2024-01-30T00:56:27;102639.44;;;-0.84;80.60
84990;BME280;75307;53.836;10.476;2024-01-30T00:58:29;102628.97;;;-0.87;80.69
84990;BME280;75307;53.836;10.476;2024-01-30T01:00:31;102638.56;;;-0.84;79.64
84990;BME280;75307;53.836;10.476;2024-01-30T01:02:35;102635.72;;;-0.90;80.09
84990;BME280;75307;53.836;10.476;2024-01-30T01:04:36;102629.13;;;-1.03;80.15
84990;BME280;75307;53.836;10.476;2024-01-30T01:06:38;102641.47;;;-0.96;80.92
84990;BME280;75307;53.836;10.476;2024-01-30T01:08:43;102641.69;;;-0.91;80.22
84990;BME280;75307;53.836;10.476;2024-01-30T01:10:44;102638.56;;;-0.84;79.49
84990;BME280;75307;53.836;10.476;2024-01-30T01:12:48;102636.25;;;-0.78;79.86
84990;BME280;75307;53.836;10.476;2024-01-30T01:14:50;102641.50;;;-0.76;80.19
84990;BME280;75307;53.836;10.476;2024-01-30T01:16:51;102638.09;;;-0.75;79.30
84990;BME280;75307;53.836;10.476;2024-01-30T01:18:55;102643.09;;;-0.79;79.39
84990;BME280;75307;53.836;10.476;2024-01-30T01:20:56;102641.28;;;-0.81;80.59
84990;BME280;75307;53.836;10.476;2024-01-30T01:22:57;102640.38;;;-0.82;80.12
84990;BME280;75307;53.836;10.476;2024-01-30T01:24:59;102629.13;;;-0.84;79.59
84990;BME280;75307;53.836;10.476;2024-01-30T01:27:01;102634.41;;;-0.81;79.65
84990;BME280;75307;53.836;10.476;2024-01-30T01:29:03;102636.25;;;-0.78;79.32
84990;BME280;75307;53.836;10.476;2024-01-30T01:31:10;102638.19;;;-0.72;79.86
84990;BME280;75307;53.836;10.476;2024-01-30T01:33:12;102627.13;;;-0.70;79.52
84990;BME280;75307;53.836;10.476;2024-01-30T01:35:16;102624.75;;;-0.65;80.14
84990;BME280;75307;53.836;10.476;2024-01-30T01:37:16;102628.16;;;-0.66;79.38
84990;BME280;75307;53.836;10.476;2024-01-30T01:39:18;102615.94;;;-0.70;79.67
84990;BME280;75307;53.836;10.476;2024-01-30T01:41:19;102628.69;;;-0.73;80.07
84990;BME280;75307;53.836;10.476;2024-01-30T01:43:21;102626.00;;;-0.76;80.22
84990;BME280;75307;53.836;10.476;2024-01-30T01:45:22;102618.09;;;-0.80;80.58
84990;BME280;75307;53.836;10.476;2024-01-30T01:47:23;102622.44;;;-0.79;79.56
84990;BME280;75307;53.836;10.476;2024-01-30T01:49:27;102619.03;;;-0.78;79.98
84990;BME280;75307;53.836;10.476;2024-01-30T01:51:31;102625.22;;;-0.74;80.40
84990;BME280;75307;53.836;10.476;2024-01-30T01:53:33;102620.22;;;-0.71;79.63
84990;BME280;75307;53.836;10.476;2024-01-30T01:55:35;102620.25;;;-0.69;79.96
84990;BME280;75307;53.836;10.476;2024-01-30T01:57:37;102621.97;;;-0.70;80.71
84990;BME280;75307;53.836;10.476;2024-01-30T01:59:39;102623.00;;;-0.66;79.55
84990;BME280;75307;53.836;10.476;2024-01-30T02:01:41;102622.84;;;-0.69;79.62
84990;BME280;75307;53.836;10.476;2024-01-30T02:03:43;102619.38;;;-0.70;79.74
84990;BME280;75307;53.836;10.476;2024-01-30T02:05:45;102612.53;;;-0.69;79.77
84990;BME280;75307;53.836;10.476;2024-01-30T02:07:47;102611.00;;;-0.64;80.64
84990;BME280;75307;53.836;10.476;2024-01-30T02:09:49;102614.66;;;-0.59;79.82
84990;BME280;75307;53.836;10.476;2024-01-30T02:11:51;102609.56;;;-0.58;80.56
84990;BME280;75307;53.836;10.476;2024-01-30T02:13:53;102607.88;;;-0.57;79.64
84990;BME280;75307;53.836;10.476;2024-01-30T02:15:55;102609.50;;;-0.59;80.58
84990;BME280;75307;53.836;10.476;2024-01-30T02:17:56;102607.75;;;-0.60;79.63
84990;BME280;75307;53.836;10.476;2024-01-30T02:19:58;102609.50;;;-0.59;80.74
84990;BME280;75307;53.836;10.476;2024-01-30T02:22:02;102587.56;;;-0.69;80.35
84990;BME280;75307;53.836;10.476;2024-01-30T02:24:04;102595.56;;;-0.63;79.60
84990;BME280;75307;53.836;10.476;2024-01-30T02:26:07;102599.19;;;-0.59;80.84
84990;BME280;75307;53.836;10.476;2024-01-30T02:28:08;102594.88;;;-0.59;80.25
84990;BME280;75307;53.836;10.476;2024-01-30T02:30:11;102595.75;;;-0.58;80.61
84990;BME280;75307;53.836;10.476;2024-01-30T02:32:13;102594.00;;;-0.59;80.78
84990;BME280;75307;53.836;10.476;2024-01-30T02:34:14;102584.50;;;-0.60;80.79
84990;BME280;75307;53.836;10.476;2024-01-30T02:36:16;102583.56;;;-0.62;80.56
84990;BME280;75307;53.836;10.476;2024-01-30T02:38:18;102587.81;;;-0.63;80.88
84990;BME280;75307;53.836;10.476;2024-01-30T02:40:19;102582.59;;;-0.64;79.90
84990;BME280;75307;53.836;10.476;2024-01-30T02:42:21;102574.13;;;-0.62;79.68
84990;BME280;75307;53.836;10.476;2024-01-30T02:44:23;102575.00;;;-0.61;80.53
84990;BME280;75307;53.836;10.476;2024-01-30T02:46:23;102575.00;;;-0.61;79.88
84990;BME280;75307;53.836;10.476;2024-01-30T02:48:25;102571.44;;;-0.63;80.94
84990;BME280;75307;53.836;10.476;2024-01-30T02:50:27;102577.44;;;-0.64;80.03
84990;BME280;75307;53.836;10.476;2024-01-30T02:52:29;102574.84;;;-0.64;79.92
84990;BME280;75307;53.836;10.476;2024-01-30T02:54:32;102581.78;;;-0.63;80.59
84990;BME280;75307;53.836;10.476;2024-01-30T02:56:33;102568.97;;;-0.62;80.13
84990;BME280;75307;53.836;10.476;2024-01-30T02:58:35;102578.50;;;-0.59;79.99
84990;BME280;75307;53.836;10.476;2024-01-30T03:00:37;102575.97;;;-0.58;81.02
84990;BME280;75307;53.836;10.476;2024-01-30T03:02:38;102573.34;;;-0.59;80.10
84990;BME280;75307;53.836;10.476;2024-01-30T03:04:40;102574.13;;;-0.62;80.82
84990;BME280;75307;53.836;10.476;2024-01-30T03:06:45;102565.53;;;-0.61;80.06
84990;BME280;75307;53.836;10.476;2024-01-30T03:08:47;102575.88;;;-0.61;80.76
84990;BME280;75307;53.836;10.476;2024-01-30T03:10:50;102567.16;;;-0.63;81.23
84990;BME280;75307;53.836;10.476;2024-01-30T03:12:52;102568.75;;;-0.66;81.08
84990;BME280;75307;53.836;10.476;2024-01-30T03:14:53;102569.56;;;-0.67;80.60
84990;BME280;75307;53.836;10.476;2024-01-30T03:16:54;102561.00;;;-0.66;80.81
84990;BME280;75307;53.836;10.476;2024-01-30T03:18:56;102559.22;;;-0.67;81.11
84990;BME280;75307;53.836;10.476;2024-01-30T03:20:57;102548.00;;;-0.68;81.26
84990;BME280;75307;53.836;10.476;2024-01-30T03:23:00;102556.59;;;-0.69;81.30
84990;BME280;75307;53.836;10.476;2024-01-30T03:25:02;102553.81;;;-0.73;80.46
84990;BME280;75307;53.836;10.476;2024-01-30T03:27:05;102552.09;;;-0.73;80.52
84990;BME280;75307;53.836;10.476;2024-01-30T03:29:07;102551.91;;;-0.78;80.59
84990;BME280;75307;53.836;10.476;2024-01-30T03:31:09;102538.94;;;-0.79;80.47
84990;BME280;75307;53.836;10.476;2024-01-30T03:33:10;102541.41;;;-0.82;81.75
84990;BME280;75307;53.836;10.476;2024-01-30T03:35:12;102542.16;;;-0.85;80.37
84990;BME280;75307;53.836;10.476;2024-01-30T03:37:14;102539.59;;;-0.85;80.94
84990;BME280;75307;53.836;10.476;2024-01-30T03:39:16;102543.94;;;-0.84;80.87
84990;BME280;75307;53.836;10.476;2024-01-30T03:41:17;102536.94;;;-0.86;81.48
84990;BME280;75307;53.836;10.476;2024-01-30T03:43:20;102543.53;;;-0.93;81.15
84990;BME280;75307;53.836;10.476;2024-01-30T03:45:22;102545.91;;;-0.97;81.27
84990;BME280;75307;53.836;10.476;2024-01-30T03:47:24;102539.72;;;-1.01;82.10
84990;BME280;75307;53.836;10.476;2024-01-30T03:49:25;102539.81;;;-0.99;81.64
84990;BME280;75307;53.836;10.476;2024-01-30T03:51:27;102533.69;;;-1.01;80.71
84990;BME280;75307;53.836;10.476;2024-01-30T03:53:28;102537.16;;;-1.01;81.11
84990;BME280;75307;53.836;10.476;2024-01-30T03:55:30;102532.81;;;-1.02;82.14
84990;BME280;75307;53.836;10.476;2024-01-30T03:57:30;102538.66;;;-1.06;81.15
84990;BME280;75307;53.836;10.476;2024-01-30T03:59:33;102536.66;;;-1.13;81.98
84990;BME280;75307;53.836;10.476;2024-01-30T04:01:34;102540.84;;;-1.15;81.82
84990;BME280;75307;53.836;10.476;2024-01-30T04:03:36;102538.16;;;-1.18;81.79
84990;BME280;75307;53.836;10.476;2024-01-30T04:05:36;102541.47;;;-1.21;81.32
84990;BME280;75307;53.836;10.476;2024-01-30T04:07:38;102538.78;;;-1.24;82.25
84990;BME280;75307;53.836;10.476;2024-01-30T04:09:40;102533.53;;;-1.25;80.99
84990;BME280;75307;53.836;10.476;2024-01-30T04:11:42;102534.34;;;-1.26;81.24
84990;BME280;75307;53.836;10.476;2024-01-30T04:13:43;102527.47;;;-1.26;82.54
84990;BME280;75307;53.836;10.476;2024-01-30T04:15:48;102531.03;;;-1.24;80.95
84990;BME280;75307;53.836;10.476;2024-01-30T04:17:49;102526.75;;;-1.23;82.37
84990;BME280;75307;53.836;10.476;2024-01-30T04:19:50;102535.97;;;-1.28;81.56
84990;BME280;75307;53.836;10.476;2024-01-30T04:21:52;102534.03;;;-1.34;81.97
84990;BME280;75307;53.836;10.476;2024-01-30T04:23:54;102536.47;;;-1.37;82.32
84990;BME280;75307;53.836;10.476;2024-01-30T04:25:55;102543.03;;;-1.44;82.06
84990;BME280;75307;53.836;10.476;2024-01-30T04:27:57;102543.94;;;-1.43;82.19
84990;BME280;75307;53.836;10.476;2024-01-30T04:29:59;102542.09;;;-1.46;82.07
84990;BME280;75307;53.836;10.476;2024-01-30T04:32:02;102541.22;;;-1.46;81.29
84990;BME280;75307;53.836;10.476;2024-01-30T04:34:04;102542.09;;;-1.46;81.69
84990;BME280;75307;53.836;10.476;2024-01-30T04:36:08;102539.66;;;-1.43;81.80
84990;BME280;75307;53.836;10.476;2024-01-30T04:38:10;102544.72;;;-1.44;82.67
84990;BME280;75307;53.836;10.476;2024-01-30T04:40:12;102540.59;;;-1.41;81.26
84990;BME280;75307;53.836;10.476;2024-01-30T04:42:14;102541.56;;;-1.39;81.67
84990;BME280;75307;53.836;10.476;2024-01-30T04:44:16;102544.00;;;-1.42;82.68
84990;BME280;75307;53.836;10.476;2024-01-30T04:46:17;102537.84;;;-1.44;82.18
84990;BME280;75307;53.836;10.476;2024-01-30T04:48:20;102536.97;;;-1.44;81.77
84990;BME280;75307;53.836;10.476;2024-01-30T04:50:22;102541.22;;;-1.46;82.76
84990;BME280;75307;53.836;10.476;2024-01-30T04:52:24;102544.47;;;-1.50;81.77
84990;BME280;75307;53.836;10.476;2024-01-30T04:54:26;102537.47;;;-1.53;82.74
84990;BME280;75307;53.836;10.476;2024-01-30T04:56:28;102535.03;;;-1.50;81.73
84990;BME280;75307;53.836;10.476;2024-01-30T04:58:30;102541.94;;;-1.49;81.70
84990;BME280;75307;53.836;10.476;2024-01-30T05:00:31;102540.28;;;-1.48;81.54
84990;BME280;75307;53.836;10.476;2024-01-30T05:02:33;102540.06;;;-1.53;82.09
84990;BME280;75307;53.836;10.476;2024-01-30T05:04:36;102543.31;;;-1.57;82.11
84990;BME280;75307;53.836;10.476;2024-01-30T05:06:37;102543.31;;;-1.57;81.42
84990;BME280;75307;53.836;10.476;2024-01-30T05:08:38;102544.84;;;-1.61;82.27
84990;BME280;75307;53.836;10.476;2024-01-30T05:10:40;102545.47;;;-1.66;82.88
84990;BME280;75307;53.836;10.476;2024-01-30T05:12:41;102541.03;;;-1.69;81.83
84990;BME280;75307;53.836;10.476;2024-01-30T05:14:43;102518.25;;;-1.79;82.51
84990;BME280;75307;53.836;10.476;2024-01-30T05:16:44;102514.06;;;-1.77;82.28
84990;BME280;75307;53.836;10.476;2024-01-30T05:18:47;102531.56;;;-1.70;82.11
84990;BME280;75307;53.836;10.476;2024-01-30T05:20:51;102530.66;;;-1.70;81.50
84990;BME280;75307;53.836;10.476;2024-01-30T05:22:52;102525.38;;;-1.73;82.98
84990;BME280;75307;53.836;10.476;2024-01-30T05:24:53;102519.41;;;-1.72;82.46
84990;BME280;75307;53.836;10.476;2024-01-30T05:26:55;102518.59;;;-1.71;81.65
84990;BME280;75307;53.836;10.476;2024-01-30T05:28:56;102519.41;;;-1.72;82.96
84990;BME280;75307;53.836;10.476;2024-01-30T05:30:58;102520.00;;;-1.78;82.68
84990;BME280;75307;53.836;10.476;2024-01-30T05:32:58;102524.22;;;-1.80;81.51
84990;BME280;75307;53.836;10.476;2024-01-30T05:35:00;102529.22;;;-1.83;82.87
84990;BME280;75307;53.836;10.476;2024-01-30T05:37:03;102517.22;;;-1.83;82.73
84990;BME280;75307;53.836;10.476;2024-01-30T05:39:05;102518.19;;;-1.81;82.43
84990;BME280;75307;53.836;10.476;2024-01-30T05:41:08;102509.78;;;-1.76;82.49
84990;BME280;75307;53.836;10.476;2024-01-30T05:43:09;102514.94;;;-1.76;82.09
84990;BME280;75307;53.836;10.476;2024-01-30T05:45:10;102514.13;;;-1.75;82.07
84990;BME280;75307;53.836;10.476;2024-01-30T05:47:12;102513.97;;;-1.78;82.35
84990;BME280;75307;53.836;10.476;2024-01-30T05:49:13;102508.69;;;-1.82;83.07
84990;BME280;75307;53.836;10.476;2024-01-30T05:51:14;102510.44;;;-1.81;82.03
84990;BME280;75307;53.836;10.476;2024-01-30T05:53:17;102514.06;;;-1.77;82.00
84990;BME280;75307;53.836;10.476;2024-01-30T05:55:19;102506.53;;;-1.72;82.79
84990;BME280;75307;53.836;10.476;2024-01-30T05:57:21;102510.19;;;-1.67;82.95
84990;BME280;75307;53.836;10.476;2024-01-30T05:59:22;102508.41;;;-1.68;82.00
84990;BME280;75307;53.836;10.476;2024-01-30T06:01:23;102508.13;;;-1.74;81.71
84990;BME280;75307;53.836;10.476;2024-01-30T06:03:25;102507.06;;;-1.79;82.14
84990;BME280;75307;53.836;10.476;2024-01-30T06:05:27;102506.13;;;-1.82;81.63
84990;BME280;75307;53.836;10.476;2024-01-30T06:07:28;102497.78;;;-1.76;82.50
84990;BME280;75307;53.836;10.476;2024-01-30T06:09:32;102502.31;;;-1.70;82.09
84990;BME280;75307;53.836;10.476;2024-01-30T06:11:33;102498.19;;;-1.67;81.72
84990;BME280;75307;53.836;10.476;2024-01-30T06:13:35;102492.22;;;-1.66;82.54
84990;BME280;75307;53.836;10.476;2024-01-30T06:15:37;102474.00;;;-1.69;82.96
84990;BME280;75307;53.836;10.476;2024-01-30T06:17:39;102489.56;;;-1.67;82.97
84990;BME280;75307;53.836;10.476;2024-01-30T06:19:40;102487.19;;;-1.63;82.92
84990;BME280;75307;53.836;10.476;2024-01-30T06:21:42;102480.41;;;-1.61;82.70
84990;BME280;75307;53.836;10.476;2024-01-30T06:23:44;102472.81;;;-1.58;81.63
84990;BME280;75307;53.836;10.476;2024-01-30T06:25:47;102453.69;;;-1.63;81.36
84990;BME280;75307;53.836;10.476;2024-01-30T06:27:49;102475.03;;;-1.46;81.79
84990;BME280;75307;53.836;10.476;2024-01-30T06:29:50;102466.66;;;-1.40;82.26
84990;BME280;75307;53.836;10.476;2024-01-30T06:31:52;102469.53;;;-1.34;81.19
84990;BME280;75307;53.836;10.476;2024-01-30T06:33:54;102468.03;;;-1.29;82.63
84990;BME280;75307;53.836;10.476;2024-01-30T06:35:55;102471.50;;;-1.28;82.45
84990;BME280;75307;53.836;10.476;2024-01-30T06:37:56;102467.25;;;-1.26;81.16
84990;BME280;75307;53.836;10.476;2024-01-30T06:39:58;102475.16;;;-1.23;81.35
84990;BME280;75307;53.836;10.476;2024-01-30T06:42:01;102469.03;;;-1.25;81.06
84990;BME280;75307;53.836;10.476;2024-01-30T06:44:03;102465.50;;;-1.27;82.07
84990;BME280;75307;53.836;10.476;2024-01-30T06:46:06;102475.97;;;-1.24;82.06
84990;BME280;75307;53.836;10.476;2024-01-30T06:48:08;102477.72;;;-1.23;82.60
84990;BME280;75307;53.836;10.476;2024-01-30T06:50:09;102477.72;;;-1.23;82.25
84990;BME280;75307;53.836;10.476;2024-01-30T06:52:11;102477.72;;;-1.23;82.17
84990;BME280;75307;53.836;10.476;2024-01-30T06:54:13;102485.66;;;-1.19;81.22
84990;BME280;75307;53.836;10.476;2024-01-30T06:56:14;102484.78;;;-1.19;82.48
84990;BME280;75307;53.836;10.476;2024-01-30T06:58:16;102478.59;;;-1.23;82.46
84990;BME280;75307;53.836;10.476;2024-01-30T07:00:19;102476.09;;;-1.21;82.62
84990;BME280;75307;53.836;10.476;2024-01-30T07:02:21;102475.19;;;-1.22;82.67
84990;BME280;75307;53.836;10.476;2024-01-30T07:04:23;102480.38;;;-1.22;81.89
84990;BME280;75307;53.836;10.476;2024-01-30T07:06:25;102477.78;;;-1.22;82.56
84990;BME280;75307;53.836;10.476;2024-01-30T07:08:26;102463.63;;;-1.32;82.50
84990;BME280;75307;53.836;10.476;2024-01-30T07:10:28;102482.94;;;-1.22;81.79
84990;BME280;75307;53.836;10.476;2024-01-30T07:12:30;102483.00;;;-1.20;81.87
84990;BME280;75307;53.836;10.476;2024-01-30T07:14:33;102482.94;;;-1.22;82.88
84990;BME280;75307;53.836;10.476;2024-01-30T07:16:35;102478.59;;;-1.23;82.61
84990;BME280;75307;53.836;10.476;2024-01-30T07:18:38;102478.56;;;-1.24;81.74
84990;BME280;75307;53.836;10.476;2024-01-30T07:20:40;102482.00;;;-1.24;82.70
84990;BME280;75307;53.836;10.476;2024-01-30T07:22:46;102480.31;;;-1.23;81.44
84990;BME280;75307;53.836;10.476;2024-01-30T07:24:47;102477.03;;;-1.19;82.77
84990;BME280;75307;53.836;10.476;2024-01-30T07:26:50;102478.03;;;-1.16;82.97
84990;BME280;75307;53.836;10.476;2024-01-30T07:28:51;102477.25;;;-1.15;82.38
84990;BME280;75307;53.836;10.476;2024-01-30T07:30:54;102479.09;;;-1.11;81.91
84990;BME280;75307;53.836;10.476;2024-01-30T07:32:56;102477.59;;;-1.06;82.04
84990;BME280;75307;53.836;10.476;2024-01-30T07:34:57;102478.50;;;-1.05;82.03
84990;BME280;75307;53.836;10.476;2024-01-30T07:36:59;102478.63;;;-1.02;81.78
84990;BME280;75307;53.836;10.476;2024-01-30T07:39:00;102477.97;;;-0.96;82.67
84990;BME280;75307;53.836;10.476;2024-01-30T07:41:02;102478.25;;;-0.90;81.85
84990;BME280;75307;53.836;10.476;2024-01-30T07:43:04;102472.31;;;-0.88;82.39
84990;BME280;75307;53.836;10.476;2024-01-30T07:45:06;102467.16;;;-0.88;81.39
84990;BME280;75307;53.836;10.476;2024-01-30T07:47:09;102468.19;;;-0.84;81.30
84990;BME280;75307;53.836;10.476;2024-01-30T07:49:11;102471.69;;;-0.82;82.59
84990;BME280;75307;53.836;10.476;2024-01-30T07:51:14;102479.53;;;-0.81;82.62
84990;BME280;75307;53.836;10.476;2024-01-30T07:53:15;102472.66;;;-0.80;81.71
84990;BME280;75307;53.836;10.476;2024-01-30T07:55:17;102473.53;;;-0.80;82.25
84990;BME280;75307;53.836;10.476;2024-01-30T08:03:29;102470.31;;;-0.74;81.64
84990;BME280;75307;53.836;10.476;2024-01-30T08:05:31;102478.28;;;-0.68;82.21
84990;BME280;75307;53.836;10.476;2024-01-30T08:07:33;102452.25;;;-0.74;81.42
84990;BME280;75307;53.836;10.476;2024-01-30T08:09:34;102465.75;;;-0.59;82.19
84990;BME280;75307;53.836;10.476;2024-01-30T08:11:36;102451.03;;;-0.61;81.29
84990;BME280;75307;53.836;10.476;2024-01-30T08:13:38;102466.91;;;-0.52;81.20
84990;BME280;75307;53.836;10.476;2024-01-30T08:15:39;102471.19;;;-0.53;82.34
84990;BME280;75307;53.836;10.476;2024-01-30T08:17:41;102462.53;;;-0.53;82.52
84990;BME280;75307;53.836;10.476;2024-01-30T08:19:44;102466.91;;;-0.52;81.49
84990;BME280;75307;53.836;10.476;2024-01-30T08:21:46;102467.13;;;-0.46;81.79
84990;BME280;75307;53.836;10.476;2024-01-30T08:23:47;102459.50;;;-0.43;81.93
84990;BME280;75307;53.836;10.476;2024-01-30T08:25:48;102463.06;;;-0.39;82.19
84990;BME280;75307;53.836;10.476;2024-01-30T08:27:50;102467.38;;;-0.40;81.56
84990;BME280;75307;53.836;10.476;2024-01-30T08:29:50;102468.38;;;-0.36;82.15
84990;BME280;75307;53.836;10.476;2024-01-30T08:31:52;102458.22;;;-0.32;81.62
84990;BME280;75307;53.836;10.476;2024-01-30T08:33:56;102459.31;;;-0.25;81.44
84990;BME280;75307;53.836;10.476;2024-01-30T08:35:59;102459.50;;;-0.20;81.45
84990;BME280;75307;53.836;10.476;2024-01-30T08:38:00;102454.69;;;-0.11;81.76
84990;BME280;75307;53.836;10.476;2024-01-30T08:40:03;102437.75;;;-0.03;81.91
84990;BME280;75307;53.836;10.476;2024-01-30T08:42:05;102442.31;;;0.04;81.69
84990;BME280;75307;53.836;10.476;2024-01-30T08:44:08;102437.31;;;0.09;81.91
84990;BME280;75307;53.836;10.476;2024-01-30T08:46:11;102437.41;;;0.10;81.82
84990;BME280;75307;53.836;10.476;2024-01-30T08:48:13;102433.44;;;0.20;81.37
84990;BME280;75307;53.836;10.476;2024-01-30T08:50:15;102432.88;;;0.29;81.40
84990;BME280;75307;53.836;10.476;2024-01-30T08:52:18;102434.00;;;0.35;81.22
84990;BME280;75307;53.836;10.476;2024-01-30T08:54:20;102429.84;;;0.40;81.28
84990;BME280;75307;53.836;10.476;2024-01-30T08:56:22;102426.63;;;0.47;81.29
84990;BME280;75307;53.836;10.476;2024-01-30T08:58:24;102425.25;;;0.57;81.23
84990;BME280;75307;53.836;10.476;2024-01-30T09:00:25;102429.88;;;0.66;80.99
84990;BME280;75307;53.836;10.476;2024-01-30T09:02:27;102425.00;;;0.75;80.87
84990;BME280;75307;53.836;10.476;2024-01-30T09:04:28;102433.19;;;0.87;81.36
84990;BME280;75307;53.836;10.476;2024-01-30T09:06:30;102429.22;;;0.97;80.89
84990;BME280;75307;53.836;10.476;2024-01-30T09:08:32;102434.72;;;1.08;80.85
84990;BME280;75307;53.836;10.476;2024-01-30T09:10:34;102434.22;;;1.19;80.60
84990;BME280;75307;53.836;10.476;2024-01-30T09:12:35;102421.66;;;1.30;80.53
84990;BME280;75307;53.836;10.476;2024-01-30T09:14:39;102417.72;;;1.43;80.59
84990;BME280;75307;53.836;10.476;2024-01-30T09:16:41;102412.91;;;1.55;79.83
84990;BME280;75307;53.836;10.476;2024-01-30T09:18:42;102401.81;;;1.59;79.91
84990;BME280;75307;53.836;10.476;2024-01-30T09:20:44;102403.31;;;1.81;79.72
84990;BME280;75307;53.836;10.476;2024-01-30T09:22:47;102403.69;;;1.93;79.43
84990;BME280;75307;53.836;10.476;2024-01-30T09:24:51;102397.19;;;2.09;79.34
84990;BME280;75307;53.836;10.476;2024-01-30T09:26:52;102397.63;;;2.24;79.14
84990;BME280;75307;53.836;10.476;2024-01-30T09:28:53;102390.16;;;2.35;79.33
84990;BME280;75307;53.836;10.476;2024-01-30T09:30:55;102381.69;;;2.44;79.36
84990;BME280;75307;53.836;10.476;2024-01-30T09:32:56;102374.25;;;2.56;79.21
84990;BME280;75307;53.836;10.476;2024-01-30T09:34:58;102376.50;;;2.77;79.45
84990;BME280;75307;53.836;10.476;2024-01-30T09:37:00;102372.84;;;3.05;79.25
84990;BME280;75307;53.836;10.476;2024-01-30T09:39:02;102375.84;;;3.22;78.56
84990;BME280;75307;53.836;10.476;2024-01-30T09:41:09;102379.53;;;3.31;78.17
84990;BME280;75307;53.836;10.476;2024-01-30T09:43:15;102392.66;;;3.38;78.62
84990;BME280;75307;53.836;10.476;2024-01-30T09:45:18;102392.84;;;3.45;78.51
84990;BME280;75307;53.836;10.476;2024-01-30T09:47:20;102396.66;;;3.61;78.53
84990;BME280;75307;53.836;10.476;2024-01-30T09:49:22;102396.19;;;3.79;78.22
84990;BME280;75307;53.836;10.476;2024-01-30T09:51:25;102399.19;;;3.99;78.23
84990;BME280;75307;53.836;10.476;2024-01-30T09:53:28;102399.56;;;4.17;77.83
84990;BME280;75307;53.836;10.476;2024-01-30T09:55:30;102395.53;;;4.34;77.51
84990;BME280;75307;53.836;10.476;2024-01-30T09:57:34;102391.44;;;4.46;77.44
84990;BME280;75307;53.836;10.476;2024-01-30T09:59:35;102395.97;;;4.59;77.48
84990;BME280;75307;53.836;10.476;2024-01-30T10:01:38;102400.50;;;4.69;77.55
84990;BME280;75307;53.836;10.476;2024-01-30T10:03:41;102408.53;;;4.80;77.26
84990;BME280;75307;53.836;10.476;2024-01-30T10:05:49;102413.06;;;4.92;77.44
84990;BME280;75307;53.836;10.476;2024-01-30T10:07:53;102406.28;;;5.03;76.99
84990;BME280;75307;53.836;10.476;2024-01-30T10:09:55;102405.56;;;5.11;77.22
84990;BME280;75307;53.836;10.476;2024-01-30T10:11:57;102395.25;;;5.18;77.08
84990;BME280;75307;53.836;10.476;2024-01-30T10:14:00;102395.34;;;5.25;77.36
84990;BME280;75307;53.836;10.476;2024-01-30T10:16:01;102384.97;;;5.30;76.97
84990;BME280;75307;53.836;10.476;2024-01-30T10:18:04;102389.41;;;5.35;77.52
84990;BME280;75307;53.836;10.476;2024-01-30T10:20:07;102366.81;;;5.36;77.49
84990;BME280;75307;53.836;10.476;2024-01-30T10:22:09;102373.97;;;5.51;77.31
84990;BME280;75307;53.836;10.476;2024-01-30T10:24:11;102374.06;;;5.57;76.77
84990;BME280;75307;53.836;10.476;2024-01-30T10:26:16;102367.19;;;5.65;77.22
84990;BME280;75307;53.836;10.476;2024-01-30T10:28:18;102368.19;;;5.72;76.59
84990;BME280;75307;53.836;10.476;2024-01-30T10:30:22;102375.19;;;5.77;77.05
84990;BME280;75307;53.836;10.476;2024-01-30T10:32:23;102375.25;;;5.82;76.57
84990;BME280;75307;53.836;10.476;2024-01-30T10:34:25;102374.47;;;5.89;76.75
84990;BME280;75307;53.836;10.476;2024-01-30T10:36:29;102369.34;;;5.94;76.97
84990;BME280;75307;53.836;10.476;2024-01-30T10:38:32;102359.00;;;6.01;76.76